sensor_id;sensor_type;location;lat;lon;timestamp;temperature;humidity
25108;DHT22;13090;53.422;7.670;2023-04-07T00:03:30;10.00;71.80
25108;DHT22;13090;53.422;7.670;2023-04-07T00:08:34;10.00;73.50
25108;DHT22;13090;53.422;7.670;2023-04-07T00:13:39;10.00;71.90
25108;DHT22;13090;53.422;7.670;2023-04-07T00:18:41;10.10;72.10
25108;DHT22;13090;53.422;7.670;2023-04-07T00:23:44;10.10;73.30
25108;DHT22;13090;53.422;7.670;2023-04-07T00:28:47;10.20;73.40
25108;DHT22;13090;53.422;7.670;2023-04-07T00:33:49;10.20;73.20
25108;DHT22;13090;53.422;7.670;2023-04-07T00:38:52;10.20;72.30
25108;DHT22;13090;53.422;7.670;2023-04-07T00:43:54;10.20;72.30
25108;DHT22;13090;53.422;7.670;2023-04-07T00:48:57;10.20;70.20
25108;DHT22;13090;53.422;7.670;2023-04-07T00:54:01;10.20;69.80
25108;DHT22;13090;53.422;7.670;2023-04-07T00:59:03;10.20;70.50
25108;DHT22;13090;53.422;7.670;2023-04-07T01:04:10;10.20;72.10
25108;DHT22;13090;53.422;7.670;2023-04-07T01:09:18;10.20;71.60
25108;DHT22;13090;53.422;7.670;2023-04-07T01:14:23;10.20;72.10
25108;DHT22;13090;53.422;7.670;2023-04-07T01:19:32;10.20;71.60
25108;DHT22;13090;53.422;7.670;2023-04-07T01:25:09;10.20;72.70
25108;DHT22;13090;53.422;7.670;2023-04-07T01:30:18;10.00;75.40
25108;DHT22;13090;53.422;7.670;2023-04-07T01:35:21;10.00;73.70
25108;DHT22;13090;53.422;7.670;2023-04-07T01:40:25;10.00;75.70
25108;DHT22;13090;53.422;7.670;2023-04-07T01:45:31;10.00;76.30
25108;DHT22;13090;53.422;7.670;2023-04-07T01:50:37;10.00;76.20
25108;DHT22;13090;53.422;7.670;2023-04-07T01:55:41;10.00;76.40
25108;DHT22;13090;53.422;7.670;2023-04-07T02:00:45;10.00;75.60
25108;DHT22;13090;53.422;7.670;2023-04-07T02:05:49;10.10;75.70
25108;DHT22;13090;53.422;7.670;2023-04-07T02:10:54;10.10;76.50
25108;DHT22;13090;53.422;7.670;2023-04-07T02:16:00;10.10;77.90
25108;DHT22;13090;53.422;7.670;2023-04-07T02:21:03;10.10;77.90
25108;DHT22;13090;53.422;7.670;2023-04-07T02:26:06;10.10;78.10
25108;DHT22;13090;53.422;7.670;2023-04-07T02:31:12;10.20;76.10
25108;DHT22;13090;53.422;7.670;2023-04-07T02:36:14;10.20;78.80
25108;DHT22;13090;53.422;7.670;2023-04-07T02:41:16;10.10;78.40
25108;DHT22;13090;53.422;7.670;2023-04-07T02:46:20;10.10;78.50
25108;DHT22;13090;53.422;7.670;2023-04-07T02:51:24;10.00;79.10
25108;DHT22;13090;53.422;7.670;2023-04-07T02:56:26;9.90;78.60
25108;DHT22;13090;53.422;7.670;2023-04-07T03:01:30;9.80;78.30
25108;DHT22;13090;53.422;7.670;2023-04-07T03:06:32;9.80;78.10
25108;DHT22;13090;53.422;7.670;2023-04-07T03:11:34;9.80;77.40
25108;DHT22;13090;53.422;7.670;2023-04-07T03:16:38;9.70;77.50
25108;DHT22;13090;53.422;7.670;2023-04-07T03:21:40;9.70;77.20
25108;DHT22;13090;53.422;7.670;2023-04-07T03:26:42;9.60;76.60
25108;DHT22;13090;53.422;7.670;2023-04-07T03:31:46;9.60;75.50
25108;DHT22;13090;53.422;7.670;2023-04-07T03:36:48;9.50;75.00
25108;DHT22;13090;53.422;7.670;2023-04-07T03:41:50;9.50;74.50
25108;DHT22;13090;53.422;7.670;2023-04-07T03:46:54;9.50;73.90
25108;DHT22;13090;53.422;7.670;2023-04-07T03:51:56;9.50;73.40
25108;DHT22;13090;53.422;7.670;2023-04-07T03:56:58;9.40;72.70
25108;DHT22;13090;53.422;7.670;2023-04-07T04:02:01;9.40;72.10
25108;DHT22;13090;53.422;7.670;2023-04-07T04:07:04;9.30;71.70
25108;DHT22;13090;53.422;7.670;2023-04-07T04:12:09;9.30;71.40
25108;DHT22;13090;53.422;7.670;2023-04-07T04:17:12;9.20;71.10
25108;DHT22;13090;53.422;7.670;2023-04-07T04:22:16;9.20;71.10
25108;DHT22;13090;53.422;7.670;2023-04-07T04:27:18;9.10;70.70
25108;DHT22;13090;53.422;7.670;2023-04-07T04:32:22;9.10;70.70
25108;DHT22;13090;53.422;7.670;2023-04-07T04:37:24;9.00;70.30
25108;DHT22;13090;53.422;7.670;2023-04-07T04:42:29;9.00;70.00
25108;DHT22;13090;53.422;7.670;2023-04-07T04:47:32;8.90;70.20
25108;DHT22;13090;53.422;7.670;2023-04-07T04:52:34;8.90;69.80
25108;DHT22;13090;53.422;7.670;2023-04-07T04:57:37;8.90;69.00
25108;DHT22;13090;53.422;7.670;2023-04-07T05:02:40;8.90;68.70
25108;DHT22;13090;53.422;7.670;2023-04-07T05:07:43;8.90;68.50
25108;DHT22;13090;53.422;7.670;2023-04-07T05:12:48;8.90;68.60
25108;DHT22;13090;53.422;7.670;2023-04-07T05:17:54;8.90;68.80
25108;DHT22;13090;53.422;7.670;2023-04-07T05:22:56;8.90;69.10
25108;DHT22;13090;53.422;7.670;2023-04-07T05:27:58;9.00;69.10
25108;DHT22;13090;53.422;7.670;2023-04-07T05:33:02;9.10;69.00
25108;DHT22;13090;53.422;7.670;2023-04-07T05:38:04;9.40;68.70
25108;DHT22;13090;53.422;7.670;2023-04-07T05:43:07;9.70;68.10
25108;DHT22;13090;53.422;7.670;2023-04-07T05:48:10;10.10;67.10
25108;DHT22;13090;53.422;7.670;2023-04-07T05:53:12;10.40;65.90
25108;DHT22;13090;53.422;7.670;2023-04-07T05:58:15;10.80;64.20
25108;DHT22;13090;53.422;7.670;2023-04-07T06:03:21;10.90;62.60
25108;DHT22;13090;53.422;7.670;2023-04-07T06:08:23;10.90;61.00
25108;DHT22;13090;53.422;7.670;2023-04-07T06:13:25;10.70;60.70
25108;DHT22;13090;53.422;7.670;2023-04-07T06:18:29;10.50;60.70
25108;DHT22;13090;53.422;7.670;2023-04-07T06:23:31;10.30;61.80
25108;DHT22;13090;53.422;7.670;2023-04-07T06:28:33;10.20;61.70
25108;DHT22;13090;53.422;7.670;2023-04-07T06:33:37;10.00;62.60
25108;DHT22;13090;53.422;7.670;2023-04-07T06:38:39;10.30;63.90
25108;DHT22;13090;53.422;7.670;2023-04-07T06:43:42;10.70;62.10
25108;DHT22;13090;53.422;7.670;2023-04-07T06:48:45;10.90;59.60
25108;DHT22;13090;53.422;7.670;2023-04-07T06:53:47;11.30;57.80
25108;DHT22;13090;53.422;7.670;2023-04-07T06:58:50;11.30;57.30
25108;DHT22;13090;53.422;7.670;2023-04-07T07:03:53;11.50;56.80
25108;DHT22;13090;53.422;7.670;2023-04-07T07:08:56;11.70;56.20
25108;DHT22;13090;53.422;7.670;2023-04-07T07:13:58;12.10;56.30
25108;DHT22;13090;53.422;7.670;2023-04-07T07:19:02;12.30;55.50
25108;DHT22;13090;53.422;7.670;2023-04-07T07:24:04;12.60;54.80
25108;DHT22;13090;53.422;7.670;2023-04-07T07:29:06;12.60;54.00
25108;DHT22;13090;53.422;7.670;2023-04-07T07:34:11;12.70;55.00
25108;DHT22;13090;53.422;7.670;2023-04-07T07:39:13;12.90;55.00
25108;DHT22;13090;53.422;7.670;2023-04-07T07:44:15;12.80;54.40
25108;DHT22;13090;53.422;7.670;2023-04-07T07:49:19;12.90;55.30
25108;DHT22;13090;53.422;7.670;2023-04-07T07:54:21;13.00;55.50
25108;DHT22;13090;53.422;7.670;2023-04-07T07:59:23;12.80;56.10
25108;DHT22;13090;53.422;7.670;2023-04-07T08:04:27;13.10;56.10
25108;DHT22;13090;53.422;7.670;2023-04-07T08:09:29;13.30;55.00
25108;DHT22;13090;53.422;7.670;2023-04-07T08:14:31;13.30;55.70
25108;DHT22;13090;53.422;7.670;2023-04-07T08:19:35;13.40;55.30
25108;DHT22;13090;53.422;7.670;2023-04-07T08:24:37;13.50;55.40
25108;DHT22;13090;53.422;7.670;2023-04-07T08:29:39;13.50;55.30
25108;DHT22;13090;53.422;7.670;2023-04-07T08:34:43;13.70;55.70
25108;DHT22;13090;53.422;7.670;2023-04-07T08:39:45;13.80;56.30
25108;DHT22;13090;53.422;7.670;2023-04-07T08:44:51;14.00;55.90
25108;DHT22;13090;53.422;7.670;2023-04-07T08:50:00;14.20;55.10
25108;DHT22;13090;53.422;7.670;2023-04-07T08:55:04;14.50;55.10
25108;DHT22;13090;53.422;7.670;2023-04-07T09:00:10;14.70;55.10
25108;DHT22;13090;53.422;7.670;2023-04-07T09:05:14;15.00;53.60
25108;DHT22;13090;53.422;7.670;2023-04-07T09:10:16;15.10;54.20
25108;DHT22;13090;53.422;7.670;2023-04-07T09:15:18;15.40;52.90
25108;DHT22;13090;53.422;7.670;2023-04-07T09:20:22;15.50;52.50
25108;DHT22;13090;53.422;7.670;2023-04-07T09:25:24;15.60;51.60
25108;DHT22;13090;53.422;7.670;2023-04-07T09:30:31;15.70;50.90
25108;DHT22;13090;53.422;7.670;2023-04-07T09:35:50;15.70;50.70
25108;DHT22;13090;53.422;7.670;2023-04-07T09:41:04;15.60;50.50
25108;DHT22;13090;53.422;7.670;2023-04-07T09:46:12;15.70;52.10
25108;DHT22;13090;53.422;7.670;2023-04-07T09:51:16;15.80;50.20
25108;DHT22;13090;53.422;7.670;2023-04-07T09:56:21;15.80;50.70
25108;DHT22;13090;53.422;7.670;2023-04-07T10:01:23;16.10;49.30
25108;DHT22;13090;53.422;7.670;2023-04-07T10:06:27;16.40;50.20
25108;DHT22;13090;53.422;7.670;2023-04-07T10:11:29;16.80;49.70
25108;DHT22;13090;53.422;7.670;2023-04-07T10:16:31;17.20;46.50
25108;DHT22;13090;53.422;7.670;2023-04-07T10:21:40;17.20;43.50
25108;DHT22;13090;53.422;7.670;2023-04-07T10:26:43;16.60;41.50
25108;DHT22;13090;53.422;7.670;2023-04-07T10:31:45;16.50;43.80
25108;DHT22;13090;53.422;7.670;2023-04-07T10:37:11;16.60;41.80
25108;DHT22;13090;53.422;7.670;2023-04-07T10:42:43;16.50;41.30
25108;DHT22;13090;53.422;7.670;2023-04-07T10:48:09;16.40;40.50
25108;DHT22;13090;53.422;7.670;2023-04-07T10:53:14;16.40;41.20
25108;DHT22;13090;53.422;7.670;2023-04-07T10:58:20;16.40;41.90
25108;DHT22;13090;53.422;7.670;2023-04-07T11:03:24;16.60;42.50
25108;DHT22;13090;53.422;7.670;2023-04-07T11:08:33;16.50;41.70
25108;DHT22;13090;53.422;7.670;2023-04-07T11:13:39;16.60;39.30
25108;DHT22;13090;53.422;7.670;2023-04-07T11:18:43;16.80;41.90
25108;DHT22;13090;53.422;7.670;2023-04-07T11:23:46;17.00;40.30
25108;DHT22;13090;53.422;7.670;2023-04-07T11:28:51;16.90;40.10
25108;DHT22;13090;53.422;7.670;2023-04-07T11:33:55;16.70;39.40
25108;DHT22;13090;53.422;7.670;2023-04-07T11:39:01;16.50;39.50
25108;DHT22;13090;53.422;7.670;2023-04-07T11:44:05;16.50;40.50
25108;DHT22;13090;53.422;7.670;2023-04-07T11:49:10;16.70;40.30
25108;DHT22;13090;53.422;7.670;2023-04-07T11:54:14;17.00;40.70
25108;DHT22;13090;53.422;7.670;2023-04-07T11:59:20;16.90;39.00
25108;DHT22;13090;53.422;7.670;2023-04-07T12:04:23;16.90;40.30
25108;DHT22;13090;53.422;7.670;2023-04-07T12:09:29;17.10;40.60
25108;DHT22;13090;53.422;7.670;2023-04-07T12:14:31;17.10;38.40
25108;DHT22;13090;53.422;7.670;2023-04-07T12:19:40;17.00;39.60
25108;DHT22;13090;53.422;7.670;2023-04-07T12:24:43;17.10;40.00
25108;DHT22;13090;53.422;7.670;2023-04-07T12:29:47;17.00;39.30
25108;DHT22;13090;53.422;7.670;2023-04-07T12:34:49;17.00;39.60
25108;DHT22;13090;53.422;7.670;2023-04-07T12:39:53;17.10;39.00
25108;DHT22;13090;53.422;7.670;2023-04-07T12:44:55;17.10;40.00
25108;DHT22;13090;53.422;7.670;2023-04-07T12:49:57;16.90;38.20
25108;DHT22;13090;53.422;7.670;2023-04-07T12:55:02;16.80;40.30
25108;DHT22;13090;53.422;7.670;2023-04-07T13:00:07;16.80;39.70
25108;DHT22;13090;53.422;7.670;2023-04-07T13:05:09;16.70;39.70
25108;DHT22;13090;53.422;7.670;2023-04-07T13:10:13;16.80;42.10
25108;DHT22;13090;53.422;7.670;2023-04-07T13:15:15;16.90;41.60
25108;DHT22;13090;53.422;7.670;2023-04-07T13:20:20;17.00;41.40
25108;DHT22;13090;53.422;7.670;2023-04-07T13:25:24;17.10;41.70
25108;DHT22;13090;53.422;7.670;2023-04-07T13:30:26;17.10;42.50
25108;DHT22;13090;53.422;7.670;2023-04-07T13:35:28;17.10;40.70
25108;DHT22;13090;53.422;7.670;2023-04-07T13:40:32;17.10;40.70
25108;DHT22;13090;53.422;7.670;2023-04-07T13:45:34;17.10;41.40
25108;DHT22;13090;53.422;7.670;2023-04-07T13:50:38;17.00;40.80
25108;DHT22;13090;53.422;7.670;2023-04-07T13:55:42;16.90;41.00
25108;DHT22;13090;53.422;7.670;2023-04-07T14:00:47;16.80;41.70
25108;DHT22;13090;53.422;7.670;2023-04-07T14:05:49;16.60;41.60
25108;DHT22;13090;53.422;7.670;2023-04-07T14:10:52;16.70;41.60
25108;DHT22;13090;53.422;7.670;2023-04-07T14:15:54;16.70;41.20
25108;DHT22;13090;53.422;7.670;2023-04-07T14:20:57;16.60;40.90
25108;DHT22;13090;53.422;7.670;2023-04-07T14:26:00;16.50;41.40
25108;DHT22;13090;53.422;7.670;2023-04-07T14:31:02;16.40;41.20
25108;DHT22;13090;53.422;7.670;2023-04-07T14:36:05;16.50;41.40
25108;DHT22;13090;53.422;7.670;2023-04-07T14:41:09;16.50;41.60
25108;DHT22;13090;53.422;7.670;2023-04-07T14:46:11;16.40;41.60
25108;DHT22;13090;53.422;7.670;2023-04-07T14:51:13;16.30;41.30
25108;DHT22;13090;53.422;7.670;2023-04-07T14:56:17;16.30;40.70
25108;DHT22;13090;53.422;7.670;2023-04-07T15:01:23;16.30;41.00
25108;DHT22;13090;53.422;7.670;2023-04-07T15:06:31;16.20;41.20
25108;DHT22;13090;53.422;7.670;2023-04-07T15:11:40;16.20;40.80
25108;DHT22;13090;53.422;7.670;2023-04-07T15:16:47;16.10;41.00
25108;DHT22;13090;53.422;7.670;2023-04-07T15:21:52;16.00;40.70
25108;DHT22;13090;53.422;7.670;2023-04-07T15:26:56;15.90;40.80
25108;DHT22;13090;53.422;7.670;2023-04-07T15:32:01;15.90;41.50
25108;DHT22;13090;53.422;7.670;2023-04-07T15:37:04;15.90;42.20
25108;DHT22;13090;53.422;7.670;2023-04-07T15:42:09;15.90;41.20
25108;DHT22;13090;53.422;7.670;2023-04-07T15:47:13;15.80;41.30
25108;DHT22;13090;53.422;7.670;2023-04-07T15:52:15;15.80;41.20
25108;DHT22;13090;53.422;7.670;2023-04-07T15:57:19;15.70;41.10
25108;DHT22;13090;53.422;7.670;2023-04-07T16:02:21;15.60;40.60
25108;DHT22;13090;53.422;7.670;2023-04-07T16:07:25;15.40;40.60
25108;DHT22;13090;53.422;7.670;2023-04-07T16:12:29;15.20;40.60
25108;DHT22;13090;53.422;7.670;2023-04-07T16:17:32;15.10;41.10
25108;DHT22;13090;53.422;7.670;2023-04-07T16:22:34;15.00;41.10
25108;DHT22;13090;53.422;7.670;2023-04-07T16:27:38;14.90;42.10
25108;DHT22;13090;53.422;7.670;2023-04-07T16:32:41;14.90;42.30
25108;DHT22;13090;53.422;7.670;2023-04-07T16:37:44;14.90;43.20
25108;DHT22;13090;53.422;7.670;2023-04-07T16:42:50;14.80;43.90
25108;DHT22;13090;53.422;7.670;2023-04-07T16:47:53;14.80;44.00
25108;DHT22;13090;53.422;7.670;2023-04-07T16:52:56;14.80;44.20
25108;DHT22;13090;53.422;7.670;2023-04-07T16:58:04;14.70;44.20
25108;DHT22;13090;53.422;7.670;2023-04-07T17:03:06;14.70;44.30
25108;DHT22;13090;53.422;7.670;2023-04-07T17:08:08;14.60;44.40
25108;DHT22;13090;53.422;7.670;2023-04-07T17:13:12;14.50;44.40
25108;DHT22;13090;53.422;7.670;2023-04-07T17:18:14;14.50;44.60
25108;DHT22;13090;53.422;7.670;2023-04-07T17:23:17;14.30;44.80
25108;DHT22;13090;53.422;7.670;2023-04-07T17:28:21;14.20;44.90
25108;DHT22;13090;53.422;7.670;2023-04-07T17:33:23;14.00;45.00
25108;DHT22;13090;53.422;7.670;2023-04-07T17:38:29;13.90;45.20
25108;DHT22;13090;53.422;7.670;2023-04-07T17:43:32;13.80;45.30
25108;DHT22;13090;53.422;7.670;2023-04-07T17:48:34;13.60;45.20
25108;DHT22;13090;53.422;7.670;2023-04-07T17:53:36;13.50;45.20
25108;DHT22;13090;53.422;7.670;2023-04-07T17:58:40;13.40;45.10
25108;DHT22;13090;53.422;7.670;2023-04-07T18:03:42;13.30;45.10
25108;DHT22;13090;53.422;7.670;2023-04-07T18:08:45;13.10;45.10
25108;DHT22;13090;53.422;7.670;2023-04-07T18:13:49;12.90;45.20
25108;DHT22;13090;53.422;7.670;2023-04-07T18:18:51;12.80;45.50
25108;DHT22;13090;53.422;7.670;2023-04-07T18:23:53;12.60;45.60
25108;DHT22;13090;53.422;7.670;2023-04-07T18:29:00;12.40;45.60
25108;DHT22;13090;53.422;7.670;2023-04-07T18:34:02;12.20;45.90
25108;DHT22;13090;53.422;7.670;2023-04-07T18:39:04;12.10;46.00
25108;DHT22;13090;53.422;7.670;2023-04-07T18:44:07;11.90;46.10
25108;DHT22;13090;53.422;7.670;2023-04-07T18:49:09;11.80;46.30
25108;DHT22;13090;53.422;7.670;2023-04-07T18:54:12;11.70;46.50
25108;DHT22;13090;53.422;7.670;2023-04-07T18:59:15;11.60;46.70
25108;DHT22;13090;53.422;7.670;2023-04-07T19:04:18;11.50;47.00
25108;DHT22;13090;53.422;7.670;2023-04-07T19:09:20;11.40;47.00
25108;DHT22;13090;53.422;7.670;2023-04-07T19:14:24;11.30;47.40
25108;DHT22;13090;53.422;7.670;2023-04-07T19:19:26;11.20;47.70
25108;DHT22;13090;53.422;7.670;2023-04-07T19:24:28;11.10;48.20
25108;DHT22;13090;53.422;7.670;2023-04-07T19:29:32;10.90;48.00
25108;DHT22;13090;53.422;7.670;2023-04-07T19:34:34;10.80;48.30
25108;DHT22;13090;53.422;7.670;2023-04-07T19:39:37;10.70;48.30
25108;DHT22;13090;53.422;7.670;2023-04-07T19:44:40;10.70;48.60
25108;DHT22;13090;53.422;7.670;2023-04-07T19:49:42;10.60;49.40
25108;DHT22;13090;53.422;7.670;2023-04-07T19:54:47;10.40;50.10
25108;DHT22;13090;53.422;7.670;2023-04-07T19:59:56;10.20;51.70
25108;DHT22;13090;53.422;7.670;2023-04-07T20:04:59;10.00;52.10
25108;DHT22;13090;53.422;7.670;2023-04-07T20:10:01;9.90;53.20
25108;DHT22;13090;53.422;7.670;2023-04-07T20:15:07;9.70;54.10
25108;DHT22;13090;53.422;7.670;2023-04-07T20:20:28;9.60;53.40
25108;DHT22;13090;53.422;7.670;2023-04-07T20:25:59;9.50;54.70
25108;DHT22;13090;53.422;7.670;2023-04-07T20:31:03;9.40;56.70
25108;DHT22;13090;53.422;7.670;2023-04-07T20:36:08;9.30;59.10
25108;DHT22;13090;53.422;7.670;2023-04-07T20:41:11;9.10;59.40
25108;DHT22;13090;53.422;7.670;2023-04-07T20:46:15;9.10;57.90
25108;DHT22;13090;53.422;7.670;2023-04-07T20:51:17;9.00;58.80
25108;DHT22;13090;53.422;7.670;2023-04-07T20:56:19;8.90;59.40
25108;DHT22;13090;53.422;7.670;2023-04-07T21:01:25;8.80;59.40
25108;DHT22;13090;53.422;7.670;2023-04-07T21:06:28;8.70;61.80
25108;DHT22;13090;53.422;7.670;2023-04-07T21:11:35;8.60;60.60
25108;DHT22;13090;53.422;7.670;2023-04-07T21:16:39;8.50;62.80
25108;DHT22;13090;53.422;7.670;2023-04-07T21:21:41;8.40;63.40
25108;DHT22;13090;53.422;7.670;2023-04-07T21:26:43;8.30;64.00
25108;DHT22;13090;53.422;7.670;2023-04-07T21:31:46;8.20;69.10
25108;DHT22;13090;53.422;7.670;2023-04-07T21:36:53;8.10;66.20
25108;DHT22;13090;53.422;7.670;2023-04-07T21:42:00;8.00;70.10
25108;DHT22;13090;53.422;7.670;2023-04-07T21:47:04;7.90;69.90
25108;DHT22;13090;53.422;7.670;2023-04-07T21:52:06;7.90;70.40
25108;DHT22;13090;53.422;7.670;2023-04-07T21:57:08;7.80;69.00
25108;DHT22;13090;53.422;7.670;2023-04-07T22:02:12;7.70;73.10
25108;DHT22;13090;53.422;7.670;2023-04-07T22:07:14;7.60;74.50
25108;DHT22;13090;53.422;7.670;2023-04-07T22:12:16;7.60;77.40
25108;DHT22;13090;53.422;7.670;2023-04-07T22:17:21;7.50;76.50
25108;DHT22;13090;53.422;7.670;2023-04-07T22:22:23;7.50;73.80
25108;DHT22;13090;53.422;7.670;2023-04-07T22:27:25;7.50;75.20
25108;DHT22;13090;53.422;7.670;2023-04-07T22:32:28;7.40;77.30
25108;DHT22;13090;53.422;7.670;2023-04-07T22:37:31;7.40;75.60
25108;DHT22;13090;53.422;7.670;2023-04-07T22:42:33;7.30;75.90
25108;DHT22;13090;53.422;7.670;2023-04-07T22:47:37;7.30;78.70
25108;DHT22;13090;53.422;7.670;2023-04-07T22:52:41;7.30;77.50
25108;DHT22;13090;53.422;7.670;2023-04-07T22:57:43;7.30;80.20
25108;DHT22;13090;53.422;7.670;2023-04-07T23:02:47;7.30;79.40
25108;DHT22;13090;53.422;7.670;2023-04-07T23:07:49;7.40;84.80
25108;DHT22;13090;53.422;7.670;2023-04-07T23:12:52;7.50;82.30
25108;DHT22;13090;53.422;7.670;2023-04-07T23:17:55;7.50;82.10
25108;DHT22;13090;53.422;7.670;2023-04-07T23:22:57;7.60;84.40
25108;DHT22;13090;53.422;7.670;2023-04-07T23:27:59;7.70;80.30
25108;DHT22;13090;53.422;7.670;2023-04-07T23:33:03;7.80;85.00
25108;DHT22;13090;53.422;7.670;2023-04-07T23:38:05;7.90;84.90
25108;DHT22;13090;53.422;7.670;2023-04-07T23:43:09;7.90;82.10
25108;DHT22;13090;53.422;7.670;2023-04-07T23:48:21;8.00;83.00
25108;DHT22;13090;53.422;7.670;2023-04-07T23:53:23;8.10;81.70
25108;DHT22;13090;53.422;7.670;2023-04-07T23:58:25;8.10;84.50
